sensor_id;sensor_type;location;lat;lon;timestamp;P1;durP1;ratioP1;P2;durP2;ratioP2
69026;SDS011;56080;47.594;19.116;2023-07-13T00:07:14;7.20;;;4.00;;
69026;SDS011;56080;47.594;19.116;2023-07-13T00:17:16;7.80;;;3.50;;
69026;SDS011;56080;47.594;19.116;2023-07-13T00:27:19;7.60;;;3.20;;
69026;SDS011;56080;47.594;19.116;2023-07-13T00:37:21;7.20;;;3.00;;
69026;SDS011;56080;47.594;19.116;2023-07-13T00:47:22;7.90;;;3.00;;
69026;SDS011;56080;47.594;19.116;2023-07-13T00:57:26;8.10;;;3.60;;
69026;SDS011;56080;47.594;19.116;2023-07-13T01:07:26;6.50;;;2.90;;
69026;SDS011;56080;47.594;19.116;2023-07-13T01:17:28;6.10;;;2.80;;
69026;SDS011;56080;47.594;19.116;2023-07-13T01:37:31;6.90;;;3.00;;
69026;SDS011;56080;47.594;19.116;2023-07-13T01:47:34;6.50;;;2.40;;
69026;SDS011;56080;47.594;19.116;2023-07-13T01:57:35;6.70;;;2.80;;
69026;SDS011;56080;47.594;19.116;2023-07-13T02:07:38;5.40;;;2.50;;
69026;SDS011;56080;47.594;19.116;2023-07-13T02:17:39;6.80;;;2.90;;
69026;SDS011;56080;47.594;19.116;2023-07-13T02:27:41;9.20;;;3.70;;
69026;SDS011;56080;47.594;19.116;2023-07-13T02:37:43;7.80;;;4.20;;
69026;SDS011;56080;47.594;19.116;2023-07-13T02:47:46;8.40;;;4.20;;
69026;SDS011;56080;47.594;19.116;2023-07-13T02:57:48;8.50;;;4.30;;
69026;SDS011;56080;47.594;19.116;2023-07-13T03:07:49;7.50;;;4.50;;
69026;SDS011;56080;47.594;19.116;2023-07-13T03:17:50;8.20;;;4.50;;
69026;SDS011;56080;47.594;19.116;2023-07-13T03:27:52;9.40;;;4.50;;
69026;SDS011;56080;47.594;19.116;2023-07-13T03:37:55;8.20;;;4.20;;
69026;SDS011;56080;47.594;19.116;2023-07-13T03:47:56;7.20;;;3.70;;
69026;SDS011;56080;47.594;19.116;2023-07-13T04:08:01;7.70;;;4.20;;
69026;SDS011;56080;47.594;19.116;2023-07-13T04:18:03;7.80;;;3.70;;
69026;SDS011;56080;47.594;19.116;2023-07-13T04:28:05;8.00;;;4.10;;
69026;SDS011;56080;47.594;19.116;2023-07-13T04:38:07;8.80;;;3.90;;
69026;SDS011;56080;47.594;19.116;2023-07-13T04:48:09;6.50;;;3.50;;
69026;SDS011;56080;47.594;19.116;2023-07-13T04:58:13;6.90;;;3.50;;
69026;SDS011;56080;47.594;19.116;2023-07-13T05:08:13;6.00;;;2.80;;
69026;SDS011;56080;47.594;19.116;2023-07-13T05:18:15;6.70;;;3.20;;
69026;SDS011;56080;47.594;19.116;2023-07-13T05:28:17;8.20;;;3.70;;
69026;SDS011;56080;47.594;19.116;2023-07-13T05:38:19;8.10;;;3.70;;
69026;SDS011;56080;47.594;19.116;2023-07-13T05:48:21;8.20;;;3.50;;
69026;SDS011;56080;47.594;19.116;2023-07-13T05:58:22;6.30;;;2.70;;
69026;SDS011;56080;47.594;19.116;2023-07-13T06:08:24;7.00;;;2.20;;
69026;SDS011;56080;47.594;19.116;2023-07-13T06:18:26;5.60;;;2.40;;
69026;SDS011;56080;47.594;19.116;2023-07-13T06:28:29;6.00;;;2.40;;
69026;SDS011;56080;47.594;19.116;2023-07-13T06:38:29;5.40;;;2.00;;
69026;SDS011;56080;47.594;19.116;2023-07-13T06:48:31;5.60;;;2.20;;
69026;SDS011;56080;47.594;19.116;2023-07-13T06:58:33;5.30;;;2.30;;
69026;SDS011;56080;47.594;19.116;2023-07-13T07:08:35;6.10;;;2.50;;
69026;SDS011;56080;47.594;19.116;2023-07-13T07:18:37;6.60;;;2.50;;
69026;SDS011;56080;47.594;19.116;2023-07-13T07:28:49;5.20;;;2.10;;
69026;SDS011;56080;47.594;19.116;2023-07-13T07:38:42;7.00;;;2.90;;
69026;SDS011;56080;47.594;19.116;2023-07-13T07:48:44;6.10;;;2.60;;
69026;SDS011;56080;47.594;19.116;2023-07-13T07:58:49;5.90;;;2.60;;
69026;SDS011;56080;47.594;19.116;2023-07-13T08:08:49;6.10;;;2.50;;
69026;SDS011;56080;47.594;19.116;2023-07-13T08:18:53;6.30;;;2.70;;
69026;SDS011;56080;47.594;19.116;2023-07-13T08:28:54;5.40;;;2.40;;
69026;SDS011;56080;47.594;19.116;2023-07-13T08:38:56;6.60;;;2.60;;
69026;SDS011;56080;47.594;19.116;2023-07-13T08:49:03;5.60;;;2.90;;
69026;SDS011;56080;47.594;19.116;2023-07-13T08:59:09;6.10;;;3.00;;
69026;SDS011;56080;47.594;19.116;2023-07-13T09:09:17;6.30;;;3.50;;
69026;SDS011;56080;47.594;19.116;2023-07-13T09:19:20;6.00;;;3.00;;
69026;SDS011;56080;47.594;19.116;2023-07-13T09:29:16;5.30;;;2.70;;
69026;SDS011;56080;47.594;19.116;2023-07-13T09:39:15;5.50;;;3.00;;
69026;SDS011;56080;47.594;19.116;2023-07-13T09:49:14;6.90;;;3.30;;
69026;SDS011;56080;47.594;19.116;2023-07-13T09:59:28;7.30;;;3.40;;
69026;SDS011;56080;47.594;19.116;2023-07-13T10:09:17;6.30;;;3.60;;
69026;SDS011;56080;47.594;19.116;2023-07-13T10:19:29;5.40;;;3.20;;
69026;SDS011;56080;47.594;19.116;2023-07-13T10:29:24;6.40;;;3.50;;
69026;SDS011;56080;47.594;19.116;2023-07-13T10:39:32;7.20;;;3.50;;
69026;SDS011;56080;47.594;19.116;2023-07-13T10:49:28;6.00;;;3.60;;
69026;SDS011;56080;47.594;19.116;2023-07-13T10:59:34;6.10;;;3.60;;
69026;SDS011;56080;47.594;19.116;2023-07-13T11:19:38;6.20;;;3.50;;
69026;SDS011;56080;47.594;19.116;2023-07-13T11:39:40;5.90;;;3.20;;
69026;SDS011;56080;47.594;19.116;2023-07-13T11:49:43;5.80;;;3.20;;
69026;SDS011;56080;47.594;19.116;2023-07-13T11:59:48;5.40;;;2.90;;
69026;SDS011;56080;47.594;19.116;2023-07-13T12:09:46;6.10;;;2.90;;
69026;SDS011;56080;47.594;19.116;2023-07-13T12:19:47;6.50;;;3.00;;
69026;SDS011;56080;47.594;19.116;2023-07-13T12:39:55;5.80;;;3.20;;
69026;SDS011;56080;47.594;19.116;2023-07-13T12:49:58;6.60;;;3.20;;
69026;SDS011;56080;47.594;19.116;2023-07-13T12:59:55;6.10;;;3.30;;
69026;SDS011;56080;47.594;19.116;2023-07-13T13:09:58;6.20;;;3.20;;
69026;SDS011;56080;47.594;19.116;2023-07-13T13:20:00;6.50;;;3.90;;
69026;SDS011;56080;47.594;19.116;2023-07-13T13:30:03;6.30;;;3.20;;
69026;SDS011;56080;47.594;19.116;2023-07-13T13:40:23;6.70;;;3.70;;
69026;SDS011;56080;47.594;19.116;2023-07-13T13:50:15;6.00;;;3.40;;
69026;SDS011;56080;47.594;19.116;2023-07-13T14:00:12;6.50;;;3.50;;
69026;SDS011;56080;47.594;19.116;2023-07-13T14:10:13;6.10;;;3.30;;
69026;SDS011;56080;47.594;19.116;2023-07-13T14:20:20;6.60;;;3.40;;
69026;SDS011;56080;47.594;19.116;2023-07-13T14:30:26;5.50;;;3.20;;
69026;SDS011;56080;47.594;19.116;2023-07-13T14:40:28;5.80;;;3.00;;
69026;SDS011;56080;47.594;19.116;2023-07-13T14:50:27;6.80;;;3.30;;
69026;SDS011;56080;47.594;19.116;2023-07-13T15:00:27;5.40;;;3.10;;
69026;SDS011;56080;47.594;19.116;2023-07-13T15:10:34;5.60;;;2.90;;
69026;SDS011;56080;47.594;19.116;2023-07-13T15:20:35;5.30;;;3.00;;
69026;SDS011;56080;47.594;19.116;2023-07-13T15:30:34;5.90;;;3.20;;
69026;SDS011;56080;47.594;19.116;2023-07-13T15:40:37;6.30;;;3.30;;
69026;SDS011;56080;47.594;19.116;2023-07-13T15:50:52;5.50;;;3.00;;
69026;SDS011;56080;47.594;19.116;2023-07-13T16:00:37;6.60;;;3.50;;
69026;SDS011;56080;47.594;19.116;2023-07-13T16:10:43;7.00;;;3.20;;
69026;SDS011;56080;47.594;19.116;2023-07-13T16:20:43;6.60;;;2.90;;
69026;SDS011;56080;47.594;19.116;2023-07-13T16:30:46;5.90;;;2.70;;
69026;SDS011;56080;47.594;19.116;2023-07-13T16:40:50;5.60;;;2.80;;
69026;SDS011;56080;47.594;19.116;2023-07-13T16:50:54;5.80;;;2.60;;
69026;SDS011;56080;47.594;19.116;2023-07-13T17:00:57;5.70;;;2.60;;
69026;SDS011;56080;47.594;19.116;2023-07-13T17:10:57;5.80;;;2.60;;
69026;SDS011;56080;47.594;19.116;2023-07-13T17:20:58;6.40;;;2.90;;
69026;SDS011;56080;47.594;19.116;2023-07-13T17:31:02;5.30;;;2.90;;
69026;SDS011;56080;47.594;19.116;2023-07-13T17:51:10;5.60;;;2.30;;
69026;SDS011;56080;47.594;19.116;2023-07-13T18:01:10;5.70;;;2.20;;
69026;SDS011;56080;47.594;19.116;2023-07-13T18:11:11;5.60;;;2.20;;
69026;SDS011;56080;47.594;19.116;2023-07-13T18:21:13;5.00;;;2.20;;
69026;SDS011;56080;47.594;19.116;2023-07-13T18:31:20;6.30;;;1.90;;
69026;SDS011;56080;47.594;19.116;2023-07-13T18:41:21;5.70;;;2.40;;
69026;SDS011;56080;47.594;19.116;2023-07-13T18:51:21;5.00;;;2.30;;
69026;SDS011;56080;47.594;19.116;2023-07-13T19:01:33;6.10;;;3.00;;
69026;SDS011;56080;47.594;19.116;2023-07-13T19:11:27;8.20;;;2.70;;
69026;SDS011;56080;47.594;19.116;2023-07-13T19:21:37;6.30;;;2.80;;
69026;SDS011;56080;47.594;19.116;2023-07-13T19:31:31;7.50;;;2.90;;
69026;SDS011;56080;47.594;19.116;2023-07-13T19:41:35;5.90;;;2.20;;
69026;SDS011;56080;47.594;19.116;2023-07-13T19:51:34;5.80;;;2.40;;
69026;SDS011;56080;47.594;19.116;2023-07-13T20:01:38;6.00;;;2.50;;
69026;SDS011;56080;47.594;19.116;2023-07-13T20:11:38;6.50;;;2.80;;
69026;SDS011;56080;47.594;19.116;2023-07-13T20:21:39;6.00;;;2.70;;
69026;SDS011;56080;47.594;19.116;2023-07-13T20:31:43;5.60;;;2.50;;
69026;SDS011;56080;47.594;19.116;2023-07-13T20:41:42;6.10;;;2.90;;
69026;SDS011;56080;47.594;19.116;2023-07-13T20:51:46;6.80;;;3.00;;
69026;SDS011;56080;47.594;19.116;2023-07-13T21:01:47;6.30;;;3.20;;
69026;SDS011;56080;47.594;19.116;2023-07-13T21:11:49;6.20;;;3.20;;
69026;SDS011;56080;47.594;19.116;2023-07-13T21:21:50;5.50;;;2.30;;
69026;SDS011;56080;47.594;19.116;2023-07-13T21:31:52;5.80;;;2.80;;
69026;SDS011;56080;47.594;19.116;2023-07-13T21:41:54;5.40;;;2.70;;
69026;SDS011;56080;47.594;19.116;2023-07-13T21:51:56;7.20;;;2.90;;
69026;SDS011;56080;47.594;19.116;2023-07-13T22:01:58;6.60;;;2.90;;
69026;SDS011;56080;47.594;19.116;2023-07-13T22:12:00;6.00;;;2.90;;
69026;SDS011;56080;47.594;19.116;2023-07-13T22:22:02;5.70;;;2.90;;
69026;SDS011;56080;47.594;19.116;2023-07-13T22:32:04;6.00;;;2.80;;
69026;SDS011;56080;47.594;19.116;2023-07-13T22:42:07;7.40;;;3.10;;
69026;SDS011;56080;47.594;19.116;2023-07-13T22:52:11;6.20;;;3.30;;
69026;SDS011;56080;47.594;19.116;2023-07-13T23:02:16;5.50;;;2.90;;
69026;SDS011;56080;47.594;19.116;2023-07-13T23:12:13;6.50;;;2.90;;
69026;SDS011;56080;47.594;19.116;2023-07-13T23:22:19;6.30;;;3.50;;
69026;SDS011;56080;47.594;19.116;2023-07-13T23:32:19;6.50;;;3.40;;
69026;SDS011;56080;47.594;19.116;2023-07-13T23:42:18;5.80;;;3.20;;
69026;SDS011;56080;47.594;19.116;2023-07-13T23:52:21;6.10;;;3.20;;
